createdAt,value
2023-05-12T00:02:23.173Z,58.87
2023-05-12T00:04:53.168Z,55.50
2023-05-12T00:07:22.639Z,55.43
2023-05-12T00:09:51.486Z,53.63
2023-05-12T00:12:20.007Z,53.87
2023-05-12T00:14:49.215Z,55.33
2023-05-12T00:17:17.613Z,42.80
2023-05-12T00:19:46.935Z,45.83
2023-05-12T00:22:17.902Z,47.93
2023-05-12T00:24:46.273Z,47.63
2023-05-12T00:27:14.756Z,46.33
2023-05-12T00:29:43.211Z,43.73
2023-05-12T00:32:11.668Z,45.87
2023-05-12T00:34:40.009Z,41.83
2023-05-12T00:37:08.616Z,39.97
2023-05-12T00:39:39.040Z,44.93
2023-05-12T00:42:08.101Z,49.50
2023-05-12T00:44:36.768Z,47.17
2023-05-12T00:47:06.348Z,45.70
2023-05-12T00:49:34.698Z,49.80
2023-05-12T00:52:04.852Z,59.30
2023-05-12T00:54:33.566Z,52.87
2023-05-12T00:57:03.593Z,58.83
2023-05-12T00:59:32.115Z,51.43
2023-05-12T01:02:00.727Z,57.17
2023-05-12T01:04:29.835Z,57.03
2023-05-12T01:07:05.381Z,57.17
2023-05-12T01:09:33.747Z,59.63
2023-05-12T01:12:03.544Z,56.20
2023-05-12T01:14:31.981Z,52.97
2023-05-12T01:17:03.841Z,54.17
2023-05-12T01:19:42.329Z,56.87
2023-05-12T01:22:15.215Z,55.17
2023-05-12T01:24:49.754Z,52.13
2023-05-12T01:27:21.967Z,57.30
2023-05-12T01:29:51.189Z,51.77
2023-05-12T01:32:20.396Z,50.27
2023-05-12T01:34:49.752Z,54.07
2023-05-12T01:37:18.232Z,54.50
2023-05-12T01:39:46.724Z,56.93
2023-05-12T01:42:15.851Z,54.53
2023-05-12T01:44:45.767Z,59.43
2023-05-12T01:47:15.927Z,56.40
2023-05-12T01:49:44.495Z,55.63
2023-05-12T01:52:13.094Z,54.67
2023-05-12T01:54:41.879Z,54.70
2023-05-12T01:57:11.378Z,57.37
2023-05-12T01:59:39.729Z,59.47
2023-05-12T02:02:10.503Z,59.20
2023-05-12T02:04:38.881Z,61.73
2023-05-12T02:07:07.988Z,57.97
2023-05-12T02:09:36.288Z,63.97
2023-05-12T02:12:07.476Z,60.67
2023-05-12T02:14:35.927Z,69.47
2023-05-12T02:17:04.799Z,61.27
2023-05-12T02:19:34.530Z,66.40
2023-05-12T02:22:03.075Z,74.20
2023-05-12T02:24:31.832Z,66.20
2023-05-12T02:27:01.017Z,64.70
2023-05-12T02:29:29.738Z,63.47
2023-05-12T02:32:00.119Z,68.17
2023-05-12T02:34:28.626Z,67.20
2023-05-12T02:36:58.388Z,67.97
2023-05-12T02:39:27.376Z,68.47
2023-05-12T02:41:56.078Z,73.40
2023-05-12T02:44:25.003Z,77.33
2023-05-12T02:46:53.694Z,68.73
2023-05-12T02:49:22.501Z,71.43
2023-05-12T02:51:51.006Z,80.23
2023-05-12T02:54:21.029Z,75.70
2023-05-12T02:56:51.365Z,60.80
2023-05-12T02:59:19.975Z,67.33
2023-05-12T03:01:48.311Z,69.97
2023-05-12T03:04:18.126Z,74.83
2023-05-12T03:06:46.860Z,71.90
2023-05-12T03:09:15.915Z,76.63
2023-05-12T03:11:45.843Z,79.63
2023-05-12T03:14:14.164Z,74.27
2023-05-12T03:16:42.637Z,72.47
2023-05-12T03:19:11.708Z,78.50
2023-05-12T03:21:40.438Z,65.27
2023-05-12T03:24:10.120Z,72.70
2023-05-12T03:26:38.618Z,83.30
2023-05-12T03:29:09.705Z,71.30
2023-05-12T03:31:39.058Z,70.13
2023-05-12T03:34:07.588Z,70.73
2023-05-12T03:36:37.175Z,62.23
2023-05-12T03:39:05.818Z,75.97
2023-05-12T03:41:34.272Z,72.00
2023-05-12T03:44:03.046Z,68.83
2023-05-12T03:46:33.133Z,72.93
2023-05-12T03:49:01.868Z,72.67
2023-05-12T03:51:30.633Z,67.43
2023-05-12T03:53:59.209Z,75.07
2023-05-12T03:56:28.533Z,67.07
2023-05-12T03:58:58.313Z,73.43
2023-05-12T04:01:27.196Z,70.27
2023-05-12T04:03:57.296Z,77.40
2023-05-12T04:06:26.160Z,74.50
2023-05-12T04:08:54.643Z,72.47
2023-05-12T04:11:23.638Z,74.20
2023-05-12T04:13:52.346Z,75.43
2023-05-12T04:16:21.060Z,75.77
2023-05-12T04:18:50.473Z,83.13
2023-05-12T04:21:20.948Z,71.60
2023-05-12T04:23:53.837Z,73.23
2023-05-12T04:26:23.208Z,72.57
2023-05-12T04:28:53.283Z,74.40
2023-05-12T04:31:22.177Z,75.07
2023-05-12T04:33:51.993Z,70.73
2023-05-12T04:36:22.883Z,74.10
2023-05-12T04:38:51.621Z,78.37
2023-05-12T04:41:19.981Z,72.97
2023-05-12T04:46:20.848Z,71.03
2023-05-12T04:48:49.489Z,69.80
2023-05-12T04:51:17.913Z,73.30
2023-05-12T04:53:47.695Z,76.37
2023-05-12T04:56:16.004Z,82.10
2023-05-12T04:58:44.488Z,79.67
2023-05-12T05:01:13.734Z,83.33
2023-05-12T05:03:42.351Z,80.87
2023-05-12T05:06:10.731Z,90.33
2023-05-12T05:08:39.003Z,73.43
2023-05-12T05:11:08.771Z,69.83
2023-05-12T05:13:37.480Z,70.23
2023-05-12T05:16:06.890Z,70.27
2023-05-12T05:18:35.370Z,67.00
2023-05-12T05:21:03.825Z,62.77
2023-05-12T05:23:32.158Z,59.70
2023-05-12T05:26:00.467Z,70.23
2023-05-12T05:28:30.979Z,63.90
2023-05-12T05:30:59.409Z,65.83
2023-05-12T05:33:28.190Z,69.83
2023-05-12T05:35:57.338Z,56.77
2023-05-12T05:38:26.182Z,62.80
2023-05-12T05:40:54.928Z,57.97
2023-05-12T05:43:23.564Z,65.77
2023-05-12T05:45:53.373Z,65.20
2023-05-12T05:48:22.367Z,66.33
2023-05-12T05:50:51.901Z,67.90
2023-05-12T05:53:21.102Z,63.43
2023-05-12T05:55:49.854Z,66.93
2023-05-12T05:58:18.537Z,68.63
2023-05-12T06:00:47.370Z,69.07
2023-05-12T06:03:17.322Z,70.33
2023-05-12T06:05:45.861Z,69.53
2023-05-12T06:08:14.243Z,69.43
2023-05-12T06:10:42.797Z,66.20
2023-05-12T06:13:11.308Z,69.67
2023-05-12T06:15:39.887Z,65.90
2023-05-12T06:18:08.971Z,61.87
2023-05-12T06:20:38.907Z,66.87
2023-05-12T06:23:07.399Z,64.33
2023-05-12T06:25:35.725Z,56.83
2023-05-12T06:28:04.146Z,61.33
2023-05-12T06:30:33.849Z,54.83
2023-05-12T06:33:02.739Z,61.00
2023-05-12T06:35:31.222Z,63.57
2023-05-12T06:38:00.986Z,55.30
2023-05-12T06:40:29.534Z,59.40
2023-05-12T06:42:58.202Z,59.27
2023-05-12T06:45:28.151Z,57.43
2023-05-12T06:47:57.714Z,59.07
2023-05-12T06:50:26.293Z,53.97
2023-05-12T06:52:54.835Z,58.60
2023-05-12T06:55:24.881Z,61.03
2023-05-12T06:57:56.145Z,61.27
2023-05-12T07:00:24.992Z,61.53
2023-05-12T07:02:53.752Z,63.77
2023-05-12T07:05:22.987Z,59.03
2023-05-12T07:07:52.203Z,63.97
2023-05-12T07:10:22.060Z,62.90
2023-05-12T07:12:52.094Z,61.77
2023-05-12T07:15:21.228Z,60.13
2023-05-12T07:17:49.983Z,61.50
2023-05-12T07:20:18.652Z,62.93
2023-05-12T07:22:47.152Z,60.60
2023-05-12T07:25:16.068Z,57.30
2023-05-12T07:27:44.631Z,57.17
2023-05-12T07:30:15.141Z,56.93
2023-05-12T07:32:44.097Z,57.27
2023-05-12T07:35:12.623Z,57.63
2023-05-12T07:37:42.152Z,53.37
2023-05-12T07:40:11.034Z,51.27
2023-05-12T07:42:40.000Z,51.50
2023-05-12T07:45:10.486Z,52.37
2023-05-12T07:47:41.052Z,52.73
2023-05-12T07:50:11.307Z,47.77
2023-05-12T07:52:49.090Z,50.57
2023-05-12T07:55:18.764Z,50.10
2023-05-12T07:57:47.387Z,43.63
2023-05-12T08:00:16.881Z,44.70
2023-05-12T08:02:47.313Z,44.70
2023-05-12T08:05:16.528Z,45.97
2023-05-12T08:07:45.231Z,39.00
2023-05-12T08:10:14.805Z,42.67
2023-05-12T08:12:43.997Z,40.67
2023-05-12T08:15:12.501Z,40.57
2023-05-12T08:17:40.859Z,40.43
2023-05-12T08:20:12.564Z,40.83
2023-05-12T08:22:41.225Z,37.87
2023-05-12T08:25:12.386Z,35.73
2023-05-12T08:27:41.299Z,38.70
2023-05-12T08:30:11.049Z,36.50
2023-05-12T08:32:39.558Z,35.20
2023-05-12T08:35:08.622Z,33.37
2023-05-12T08:37:38.428Z,34.50
2023-05-12T08:40:16.829Z,33.57
2023-05-12T08:42:50.967Z,33.37
2023-05-12T08:45:20.703Z,34.97
2023-05-12T08:47:49.269Z,35.30
2023-05-12T08:50:20.180Z,36.47
2023-05-12T08:52:53.014Z,36.53
2023-05-12T08:55:27.402Z,36.17
2023-05-12T08:57:59.643Z,34.07
2023-05-12T09:00:31.211Z,32.47
2023-05-12T09:03:02.408Z,32.97
2023-05-12T09:05:31.934Z,32.37
2023-05-12T09:08:02.404Z,33.50
2023-05-12T09:10:34.993Z,33.47
2023-05-12T09:13:07.538Z,33.47
2023-05-12T09:15:40.223Z,34.37
2023-05-12T09:18:08.679Z,33.03
2023-05-12T09:20:37.288Z,32.37
2023-05-12T09:23:17.162Z,32.47
2023-05-12T09:25:47.136Z,29.80
2023-05-12T09:28:16.740Z,29.80
2023-05-12T09:30:44.993Z,30.03
2023-05-12T09:33:14.846Z,28.10
2023-05-12T09:35:44.776Z,28.48
2023-05-12T09:38:17.597Z,28.20
2023-05-12T09:40:47.261Z,29.77
2023-05-12T09:43:17.558Z,26.27
2023-05-12T09:45:47.721Z,26.58
2023-05-12T09:48:16.406Z,27.27
2023-05-12T09:50:48.212Z,27.58
2023-05-12T09:53:20.652Z,26.02
2023-05-12T09:55:50.590Z,26.58
2023-05-12T09:58:21.793Z,24.90
2023-05-12T10:01:17.917Z,25.15
2023-05-12T10:03:42.259Z,25.48
2023-05-12T10:06:16.204Z,24.27
2023-05-12T10:08:50.457Z,23.88
2023-05-12T10:11:19.585Z,24.38
2023-05-12T10:13:48.499Z,24.38
2023-05-12T10:16:17.800Z,24.25
2023-05-12T10:18:46.757Z,24.52
2023-05-12T10:21:17.476Z,23.45
2023-05-12T10:23:48.277Z,23.23
2023-05-12T10:26:17.949Z,21.85
2023-05-12T10:28:47.340Z,23.65
2023-05-12T10:31:16.330Z,23.45
2023-05-12T10:33:44.721Z,23.45
2023-05-12T10:36:20.460Z,21.90
2023-05-12T10:38:51.249Z,21.90
2023-05-12T10:41:31.780Z,20.70
2023-05-12T10:44:00.664Z,20.85
2023-05-12T10:46:30.568Z,18.17
2023-05-12T10:49:03.474Z,16.35
2023-05-12T10:51:34.159Z,15.35
2023-05-12T10:54:06.503Z,16.98
2023-05-12T10:56:44.863Z,16.65
2023-05-12T10:59:24.782Z,16.85
2023-05-12T11:02:03.930Z,17.45
2023-05-12T11:04:43.420Z,16.20
2023-05-12T11:07:14.325Z,15.55
2023-05-12T11:09:57.635Z,13.35
2023-05-12T11:12:37.134Z,14.00
2023-05-12T11:15:08.217Z,11.75
2023-05-12T11:17:41.162Z,9.77
2023-05-12T11:20:11.076Z,9.88
2023-05-12T11:22:44.856Z,9.88
2023-05-12T11:25:16.063Z,11.63
2023-05-12T11:27:51.101Z,20.17
2023-05-12T11:30:20.034Z,9.88
2023-05-12T11:32:48.733Z,10.95
2023-05-12T11:35:20.545Z,9.40
2023-05-12T11:37:49.179Z,9.55
2023-05-12T11:40:22.485Z,8.95
2023-05-12T11:42:54.766Z,11.13
2023-05-12T11:45:29.291Z,7.53
2023-05-12T11:48:08.948Z,8.02
2023-05-12T11:50:40.746Z,7.32
2023-05-12T11:53:14.945Z,8.48
2023-05-12T11:55:52.207Z,7.75
2023-05-12T11:58:22.920Z,7.85
2023-05-12T12:00:51.675Z,8.00
2023-05-12T12:03:20.787Z,8.40
2023-05-12T12:06:01.092Z,8.50
2023-05-12T12:08:29.670Z,6.93
2023-05-12T12:11:01.966Z,6.80
2023-05-12T12:13:31.839Z,7.25
2023-05-12T12:16:00.255Z,6.00
2023-05-12T12:18:28.791Z,5.18
2023-05-12T12:20:57.690Z,5.15
2023-05-12T12:23:26.255Z,6.03
2023-05-12T12:25:57.781Z,6.38
2023-05-12T12:28:27.778Z,4.80
2023-05-12T12:30:56.291Z,5.10
2023-05-12T12:33:24.668Z,5.82
2023-05-12T12:35:53.818Z,5.28
2023-05-12T12:38:23.734Z,5.00
2023-05-12T12:40:52.728Z,5.43
2023-05-12T12:43:22.073Z,4.63
2023-05-12T12:45:55.055Z,4.28
2023-05-12T12:48:23.758Z,4.13
2023-05-12T12:50:53.790Z,3.60
2023-05-12T12:53:22.788Z,3.78
2023-05-12T12:55:51.564Z,3.88
2023-05-12T12:58:21.703Z,4.07
2023-05-12T13:00:53.600Z,4.75
2023-05-12T13:03:23.327Z,3.40
2023-05-12T13:05:54.486Z,3.95
2023-05-12T13:08:24.570Z,3.45
2023-05-12T13:10:53.417Z,3.20
2023-05-12T13:13:24.572Z,3.92
2023-05-12T13:15:55.303Z,3.90
2023-05-12T13:18:23.868Z,4.68
2023-05-12T13:20:52.822Z,2.85
2023-05-12T13:23:21.769Z,3.30
2023-05-12T13:25:50.496Z,2.95
2023-05-12T13:28:19.198Z,7.90
2023-05-12T13:30:47.918Z,5.28
2023-05-12T13:33:17.744Z,5.80
2023-05-12T13:35:46.672Z,3.97
2023-05-12T13:38:15.304Z,2.85
2023-05-12T13:40:43.689Z,3.00
2023-05-12T13:43:12.325Z,2.90
2023-05-12T13:45:40.671Z,3.13
2023-05-12T13:48:09.413Z,3.38
2023-05-12T13:50:39.227Z,4.47
2023-05-12T13:53:07.843Z,3.25
2023-05-12T13:55:40.855Z,2.70
2023-05-12T13:58:09.951Z,3.50
2023-05-12T14:00:38.863Z,3.20
2023-05-12T14:03:08.086Z,4.78
2023-05-12T14:05:37.973Z,3.28
2023-05-12T14:08:06.730Z,3.58
2023-05-12T14:10:36.112Z,3.60
2023-05-12T14:13:05.727Z,4.85
2023-05-12T14:15:48.080Z,3.92
2023-05-12T14:18:17.787Z,3.53
2023-05-12T14:20:48.032Z,4.18
2023-05-12T14:23:17.291Z,3.80
2023-05-12T14:25:46.181Z,3.50
2023-05-12T14:28:14.731Z,4.78
2023-05-12T14:30:45.286Z,3.40
2023-05-12T14:33:14.124Z,3.75
2023-05-12T14:35:44.771Z,5.10
2023-05-12T14:38:17.919Z,3.35
2023-05-12T14:40:49.229Z,4.03
2023-05-12T14:43:17.863Z,3.30
2023-05-12T14:45:54.285Z,3.13
2023-05-12T14:48:27.337Z,3.50
2023-05-12T14:50:56.470Z,3.30
2023-05-12T14:53:26.687Z,3.15
2023-05-12T14:55:55.382Z,2.75
2023-05-12T14:58:24.600Z,4.03
2023-05-12T15:00:53.829Z,5.70
2023-05-12T15:03:23.090Z,5.55
2023-05-12T15:08:23.107Z,4.60
2023-05-12T15:10:53.266Z,3.20
2023-05-12T15:13:22.817Z,4.10
2023-05-12T15:15:55.185Z,5.20
2023-05-12T15:18:25.542Z,4.03
2023-05-12T15:20:59.428Z,4.00
2023-05-12T15:23:28.030Z,4.40
2023-05-12T15:25:59.361Z,5.50
2023-05-12T15:28:28.614Z,3.83
2023-05-12T15:30:57.847Z,4.05
2023-05-12T15:33:26.798Z,3.85
2023-05-12T15:35:55.294Z,4.45
2023-05-12T15:38:23.752Z,4.90
2023-05-12T15:40:52.998Z,5.07
2023-05-12T15:43:23.272Z,3.40
2023-05-12T15:45:51.822Z,3.40
2023-05-12T15:48:20.304Z,4.68
2023-05-12T15:50:49.181Z,3.33
2023-05-12T15:53:17.485Z,4.25
2023-05-12T15:55:45.871Z,6.78
2023-05-12T15:58:15.253Z,3.10
2023-05-12T16:00:45.373Z,4.93
2023-05-12T16:03:13.810Z,4.22
2023-05-12T16:05:42.640Z,3.67
2023-05-12T16:08:11.206Z,3.42
2023-05-12T16:10:39.564Z,3.33
2023-05-12T16:13:08.018Z,3.38
2023-05-12T16:15:36.890Z,3.72
2023-05-12T16:18:10.892Z,3.45
2023-05-12T16:20:41.738Z,4.15
2023-05-12T16:23:10.657Z,6.18
2023-05-12T16:25:39.178Z,4.07
2023-05-12T16:28:07.636Z,4.30
2023-05-12T16:30:35.998Z,6.25
2023-05-12T16:33:04.381Z,3.92
2023-05-12T16:35:34.523Z,6.55
2023-05-12T16:38:03.361Z,5.22
2023-05-12T16:40:32.622Z,5.53
2023-05-12T16:43:01.192Z,5.20
2023-05-12T16:45:29.506Z,5.95
2023-05-12T16:47:58.319Z,6.65
2023-05-12T16:50:27.016Z,5.35
2023-05-12T16:52:56.783Z,5.53
2023-05-12T16:55:26.940Z,5.70
2023-05-12T16:57:55.482Z,5.63
2023-05-12T17:00:45.698Z,4.63
2023-05-12T17:03:14.351Z,4.80
2023-05-12T17:05:44.991Z,4.60
2023-05-12T17:08:15.765Z,5.13
2023-05-12T17:10:46.299Z,5.90
2023-05-12T17:13:17.544Z,4.85
2023-05-12T17:15:46.987Z,4.43
2023-05-12T17:18:15.999Z,4.20
2023-05-12T17:20:44.414Z,6.18
2023-05-12T17:23:14.452Z,4.35
2023-05-12T17:25:43.450Z,4.35
2023-05-12T17:28:12.328Z,4.25
2023-05-12T17:30:45.023Z,4.53
2023-05-12T17:33:15.511Z,4.68
2023-05-12T17:35:53.597Z,5.57
2023-05-12T17:38:34.418Z,5.03
2023-05-12T17:41:05.091Z,4.13
2023-05-12T17:43:33.544Z,4.03
2023-05-12T17:46:02.473Z,4.60
2023-05-12T17:48:33.239Z,3.92
2023-05-12T17:51:03.490Z,6.03
2023-05-12T17:53:34.077Z,4.10
2023-05-12T17:56:03.094Z,4.22
2023-05-12T17:58:31.720Z,4.00
2023-05-12T18:01:00.767Z,3.83
2023-05-12T18:03:29.266Z,5.28
2023-05-12T18:05:58.063Z,4.78
2023-05-12T18:08:27.237Z,5.75
2023-05-12T18:10:57.757Z,4.13
2023-05-12T18:13:26.339Z,4.75
2023-05-12T18:15:57.001Z,4.22
2023-05-12T18:18:26.382Z,5.57
2023-05-12T18:20:54.987Z,7.90
2023-05-12T18:23:23.747Z,3.88
2023-05-12T18:25:52.874Z,4.65
2023-05-12T18:28:25.856Z,5.20
2023-05-12T18:30:56.250Z,5.38
2023-05-12T18:33:29.514Z,4.40
2023-05-12T18:36:01.047Z,3.97
2023-05-12T18:38:32.536Z,4.55
2023-05-12T18:41:01.144Z,3.63
2023-05-12T18:43:44.236Z,4.68
2023-05-12T18:46:13.800Z,5.00
2023-05-12T18:48:43.581Z,3.95
2023-05-12T18:51:12.429Z,5.20
2023-05-12T18:53:43.821Z,3.53
2023-05-12T18:56:14.356Z,4.25
2023-05-12T18:58:44.477Z,4.05
2023-05-12T19:01:12.914Z,5.20
2023-05-12T19:03:44.574Z,4.88
2023-05-12T19:06:14.985Z,7.03
2023-05-12T19:08:44.583Z,4.57
2023-05-12T19:11:12.939Z,5.50
2023-05-12T19:13:45.561Z,4.78
2023-05-12T19:16:15.472Z,9.05
2023-05-12T19:18:44.332Z,5.05
2023-05-12T19:21:13.482Z,4.77
2023-05-12T19:23:43.987Z,5.27
2023-05-12T19:26:13.056Z,5.67
2023-05-12T19:28:44.026Z,4.80
2023-05-12T19:31:15.246Z,7.70
2023-05-12T19:33:43.919Z,8.63
2023-05-12T19:36:12.808Z,6.20
2023-05-12T19:38:43.694Z,5.03
2023-05-12T19:41:12.541Z,4.93
2023-05-12T19:43:41.426Z,5.23
2023-05-12T19:46:12.421Z,6.20
2023-05-12T19:48:42.325Z,5.50
2023-05-12T19:51:11.378Z,4.83
2023-05-12T19:53:40.409Z,6.47
2023-05-12T19:56:09.590Z,6.40
2023-05-12T19:58:38.391Z,6.17
2023-05-12T20:01:08.598Z,8.43
2023-05-12T20:03:37.201Z,5.20
2023-05-12T20:06:07.940Z,5.67
2023-05-12T20:08:36.375Z,5.30
2023-05-12T20:11:04.904Z,4.90
2023-05-12T20:13:33.539Z,5.20
2023-05-12T20:16:02.054Z,5.10
2023-05-12T20:18:31.438Z,5.20
2023-05-12T20:21:00.140Z,5.47
2023-05-12T20:23:31.667Z,5.93
2023-05-12T20:26:01.480Z,5.93
2023-05-12T20:28:30.390Z,6.00
2023-05-12T20:30:59.249Z,5.23
2023-05-12T20:33:28.767Z,5.10
2023-05-12T20:35:57.652Z,6.27
2023-05-12T20:38:27.158Z,7.33
2023-05-12T20:40:57.079Z,8.80
2023-05-12T20:43:26.662Z,6.20
2023-05-12T20:45:55.603Z,6.93
2023-05-12T20:48:24.215Z,6.60
2023-05-12T20:50:54.239Z,7.87
2023-05-12T20:53:27.054Z,9.17
2023-05-12T20:55:57.844Z,8.60
2023-05-12T20:58:26.802Z,7.03
2023-05-12T21:00:55.483Z,7.37
2023-05-12T21:03:24.626Z,7.63
2023-05-12T21:05:53.394Z,7.70
2023-05-12T21:08:21.738Z,6.37
2023-05-12T21:10:50.330Z,6.33
2023-05-12T21:13:20.819Z,7.13
2023-05-12T21:15:49.189Z,6.50
2023-05-12T21:18:17.720Z,6.10
2023-05-12T21:20:47.198Z,6.67
2023-05-12T21:23:15.545Z,7.53
2023-05-12T21:25:44.246Z,8.10
2023-05-12T21:28:12.993Z,11.40
2023-05-12T21:30:42.705Z,6.90
2023-05-12T21:33:11.166Z,6.50
2023-05-12T21:35:39.649Z,7.03
2023-05-12T21:38:10.217Z,8.23
2023-05-12T21:40:39.144Z,7.33
2023-05-12T21:43:07.561Z,7.50
2023-05-12T21:45:36.023Z,10.17
2023-05-12T21:48:06.526Z,8.40
2023-05-12T21:50:34.951Z,8.47
2023-05-12T21:53:03.312Z,9.73
2023-05-12T21:55:31.658Z,8.70
2023-05-12T21:58:00.274Z,7.77
2023-05-12T22:00:32.746Z,8.03
2023-05-12T22:03:01.176Z,10.50
2023-05-12T22:05:31.955Z,9.40
2023-05-12T22:08:00.752Z,11.50
2023-05-12T22:10:30.485Z,235.17
2023-05-12T22:12:58.927Z,35.57
2023-05-12T22:15:27.748Z,35.17
2023-05-12T22:17:56.961Z,5.80
2023-05-12T22:20:26.880Z,5.93
2023-05-12T22:22:57.800Z,11.93
2023-05-12T22:25:27.100Z,10.27
2023-05-12T22:27:55.944Z,9.60
2023-05-12T22:30:25.103Z,9.67
2023-05-12T22:32:55.057Z,8.77
2023-05-12T22:35:24.354Z,9.67
2023-05-12T22:37:53.560Z,9.00
2023-05-12T22:40:23.940Z,10.20
2023-05-12T22:42:52.472Z,9.37
2023-05-12T22:45:22.377Z,11.33
2023-05-12T22:47:51.289Z,8.80
2023-05-12T22:50:20.911Z,10.43
2023-05-12T22:52:53.029Z,10.43
2023-05-12T22:55:27.355Z,9.27
2023-05-12T22:57:55.723Z,9.57
2023-05-12T23:00:24.583Z,11.53
2023-05-12T23:02:53.516Z,12.07
2023-05-12T23:05:24.649Z,11.93
2023-05-12T23:07:53.151Z,8.73
2023-05-12T23:10:24.847Z,10.80
2023-05-12T23:12:53.784Z,9.70
2023-05-12T23:15:25.856Z,10.03
2023-05-12T23:17:54.323Z,10.97
2023-05-12T23:20:22.932Z,9.87
2023-05-12T23:22:51.866Z,10.43
2023-05-12T23:25:21.277Z,11.23
2023-05-12T23:27:51.550Z,9.97
2023-05-12T23:30:20.452Z,10.37
2023-05-12T23:32:50.675Z,10.10
2023-05-12T23:35:19.485Z,10.90
2023-05-12T23:37:47.876Z,10.13
2023-05-12T23:40:16.297Z,14.47
2023-05-12T23:42:44.573Z,11.07
2023-05-12T23:45:15.818Z,13.00
2023-05-12T23:47:44.582Z,10.83
2023-05-12T23:50:13.252Z,11.50
2023-05-12T23:52:41.640Z,9.97
2023-05-12T23:55:11.674Z,13.97
2023-05-12T23:57:40.108Z,9.63
